Time,TemperatureF,DewpointF,PressureIn,WindDirection,WindDirectionDegrees,WindSpeedMPH,WindSpeedGustMPH,Humidity,HourlyPrecipIn,Conditions,Clouds,dailyrainin,SoftwareType,DateUTC
2013-03-18 12:06:00,31.6,21.2,29.64,NE,45,8.7,8.7,65,0.00,,,0.00,WUHU21623XXSP,2013-03-18 16:06:00,
2013-03-18 12:07:00,31.6,21.2,29.64,NE,45,8.7,8.7,65,0.00,,,0.00,WUHU21623XXSP,2013-03-18 16:07:00,
2013-03-18 12:12:00,31.9,21.9,29.64,ENE,67,4.9,8.7,66,0.00,,,0.00,WUHU21623XXSP,2013-03-18 16:12:00,
2013-03-18 12:17:00,32.1,22.1,29.64,NE,45,8.9,8.9,66,0.00,,,0.00,WUHU21623XXSP,2013-03-18 16:17:00,
2013-03-18 12:23:00,32.3,22.3,29.64,East,90,2.5,8.9,66,0.00,,,0.00,WUHU21623XXSP,2013-03-18 16:23:00,
2013-03-18 12:32:00,32.8,22.8,29.63,NNE,22,5.6,5.6,66,0.00,,,0.00,WUHU21623XXSP,2013-03-18 16:32:00,
2013-03-18 12:37:00,32.5,22.5,29.63,NE,45,13.4,13.4,66,0.00,,,0.00,WUHU21623XXSP,2013-03-18 16:37:00,
2013-03-18 12:42:00,32.3,22.3,29.64,East,90,0.0,13.4,66,0.00,,,0.00,WUHU21623XXSP,2013-03-18 16:42:00,
2013-03-18 12:47:00,32.1,22.1,29.64,East,90,6.7,6.7,66,0.00,,,0.00,WUHU21623XXSP,2013-03-18 16:47:00,
2013-03-18 12:52:00,31.9,22.3,29.64,SE,135,4.3,6.7,67,0.00,,,0.00,WUHU21623XXSP,2013-03-18 16:52:00,
2013-03-18 12:57:00,31.8,22.2,29.64,East,90,11.6,11.6,67,0.00,,,0.00,WUHU21623XXSP,2013-03-18 16:57:00,
2013-03-18 13:02:00,31.6,22.0,29.64,ESE,112,2.0,11.6,67,0.00,,,0.00,WUHU21623XXSP,2013-03-18 17:02:00,
2013-03-18 13:07:00,31.6,22.3,29.63,East,90,5.6,5.6,68,0.00,,,0.00,WUHU21623XXSP,2013-03-18 17:07:00,
2013-03-18 13:19:00,31.6,22.3,29.63,ESE,112,5.4,5.4,68,0.00,,,0.00,WUHU21623XXSP,2013-03-18 17:19:00,
2013-03-18 13:24:00,31.6,22.7,29.63,ESE,112,0.0,5.4,69,0.00,,,0.00,WUHU21623XXSP,2013-03-18 17:24:00,
2013-03-18 13:30:00,31.2,22.9,29.62,SE,135,5.8,6.9,71,0.00,,,0.00,WUHU21623XXSP,2013-03-18 17:30:00,
2013-03-18 13:35:00,31.2,22.9,29.62,ENE,67,4.3,6.9,71,0.00,,,0.00,WUHU21623XXSP,2013-03-18 17:35:00,
2013-03-18 13:41:00,31.2,23.3,29.61,ESE,112,4.3,4.3,72,0.00,,,0.00,WUHU21623XXSP,2013-03-18 17:41:00,
2013-03-18 13:47:00,31.8,23.9,29.61,ENE,67,8.1,8.1,72,0.00,,,0.00,WUHU21623XXSP,2013-03-18 17:47:00,
2013-03-18 13:52:00,31.9,24.0,29.60,East,90,3.1,8.1,72,0.00,,,0.00,WUHU21623XXSP,2013-03-18 17:52:00,
2013-03-18 13:57:00,31.9,24.0,29.60,ENE,67,6.7,6.7,72,0.00,,,0.00,WUHU21623XXSP,2013-03-18 17:57:00,
2013-03-18 14:02:00,32.1,23.8,29.59,ESE,112,3.4,6.7,71,0.00,,,0.00,WUHU21623XXSP,2013-03-18 18:02:00,
2013-03-18 14:07:00,32.1,24.1,29.58,ENE,67,2.7,3.4,72,0.00,,,0.00,WUHU21623XXSP,2013-03-18 18:07:00,
2013-03-18 14:12:00,32.1,24.1,29.58,ENE,67,5.8,5.8,72,0.00,,,0.00,WUHU21623XXSP,2013-03-18 18:12:00,
2013-03-18 14:17:00,32.1,24.1,29.58,NE,45,2.2,5.8,72,0.00,,,0.00,WUHU21623XXSP,2013-03-18 18:17:00,
2013-03-18 14:22:00,32.1,24.5,29.57,ENE,67,6.9,6.9,73,0.00,,,0.00,WUHU21623XXSP,2013-03-18 18:22:00,
2013-03-18 14:27:00,31.9,24.3,29.56,East,90,5.1,6.9,73,0.00,,,0.00,WUHU21623XXSP,2013-03-18 18:27:00,
2013-03-18 14:32:00,31.9,24.3,29.56,ENE,67,7.4,7.4,73,0.00,,,0.00,WUHU21623XXSP,2013-03-18 18:32:00,
2013-03-18 14:37:00,32.1,24.5,29.56,SSE,157,6.9,7.4,73,0.00,,,0.00,WUHU21623XXSP,2013-03-18 18:37:00,
2013-03-18 14:43:00,32.1,24.5,29.55,SE,135,6.5,13.6,73,0.00,,,0.00,WUHU21623XXSP,2013-03-18 18:43:00,
2013-03-18 14:48:00,32.1,24.5,29.55,East,90,7.8,13.6,73,0.00,,,0.00,WUHU21623XXSP,2013-03-18 18:48:00,
2013-03-18 14:53:00,32.1,24.5,29.54,NE,45,6.5,7.8,73,0.00,,,0.00,WUHU21623XXSP,2013-03-18 18:53:00,
2013-03-18 14:58:00,32.1,24.8,29.55,SSE,157,0.0,6.5,74,0.00,,,0.00,WUHU21623XXSP,2013-03-18 18:58:00,
2013-03-18 15:03:00,32.1,24.8,29.55,ENE,67,7.2,7.2,74,0.00,,,0.00,WUHU21623XXSP,2013-03-18 19:03:00,
2013-03-18 15:08:00,31.6,24.6,29.53,ESE,112,0.0,7.2,75,0.00,,,0.00,WUHU21623XXSP,2013-03-18 19:08:00,
2013-03-18 15:13:00,31.6,24.9,29.52,ESE,112,0.0,2.9,76,0.00,,,0.00,WUHU21623XXSP,2013-03-18 19:13:00,
2013-03-18 15:18:00,31.6,24.9,29.52,ESE,112,3.4,3.4,76,0.00,,,0.00,WUHU21623XXSP,2013-03-18 19:18:00,
2013-03-18 15:23:00,31.6,25.2,29.51,East,90,0.0,3.4,77,0.00,,,0.00,WUHU21623XXSP,2013-03-18 19:23:00,
2013-03-18 15:28:00,31.6,25.2,29.51,ENE,67,2.9,5.8,77,0.00,,,0.00,WUHU21623XXSP,2013-03-18 19:28:00,
2013-03-18 15:33:00,31.4,25.4,29.51,ENE,67,6.5,6.5,78,0.00,,,0.00,WUHU21623XXSP,2013-03-18 19:33:00,
2013-03-18 15:38:00,31.2,25.2,29.50,ESE,112,4.0,6.5,78,0.00,,,0.00,WUHU21623XXSP,2013-03-18 19:38:00,
2013-03-18 15:43:00,31.2,25.2,29.50,ESE,112,4.0,4.0,78,0.00,,,0.00,WUHU21623XXSP,2013-03-18 19:43:00,
2013-03-18 15:48:00,31.0,25.3,29.50,SE,135,5.1,5.1,79,0.00,,,0.00,WUHU21623XXSP,2013-03-18 19:48:00,
2013-03-18 15:53:00,30.9,25.2,29.49,East,90,0.0,5.1,79,0.00,,,0.00,WUHU21623XXSP,2013-03-18 19:53:00,
2013-03-18 15:58:00,30.7,25.3,29.49,ESE,112,2.9,2.9,80,0.00,,,0.00,WUHU21623XXSP,2013-03-18 19:58:00,
2013-03-18 16:03:00,30.7,25.3,29.49,ESE,112,5.8,5.8,80,0.00,,,0.00,WUHU21623XXSP,2013-03-18 20:03:00,
2013-03-18 16:08:00,30.7,25.3,29.48,NE,45,8.3,8.3,80,0.00,,,0.00,WUHU21623XXSP,2013-03-18 20:08:00,
2013-03-18 16:13:00,30.7,25.3,29.47,NE,45,4.9,8.3,80,0.00,,,0.00,WUHU21623XXSP,2013-03-18 20:13:00,
2013-03-18 16:18:00,30.7,25.6,29.47,NE,45,6.5,6.5,81,0.00,,,0.00,WUHU21623XXSP,2013-03-18 20:18:00,
2013-03-18 16:23:00,30.7,25.6,29.47,ENE,67,2.2,6.5,81,0.00,,,0.00,WUHU21623XXSP,2013-03-18 20:23:00,
2013-03-18 16:32:00,30.7,25.6,29.48,SE,135,5.4,5.4,81,0.00,,,0.00,WUHU21623XXSP,2013-03-18 20:32:00,
2013-03-18 16:37:00,30.7,25.6,29.48,ESE,112,0.0,5.4,81,0.00,,,0.00,WUHU21623XXSP,2013-03-18 20:37:00,
2013-03-18 16:42:00,30.7,25.6,29.49,SSE,157,3.6,5.4,81,0.00,,,0.00,WUHU21623XXSP,2013-03-18 20:42:00,
2013-03-18 16:47:00,30.7,25.6,29.49,East,90,0.0,3.6,81,0.00,,,0.00,WUHU21623XXSP,2013-03-18 20:47:00,
2013-03-18 16:52:00,30.7,25.6,29.48,ENE,67,4.9,4.9,81,0.00,,,0.00,WUHU21623XXSP,2013-03-18 20:52:00,
2013-03-18 16:57:00,30.7,25.6,29.47,SE,135,0.0,4.9,81,0.00,,,0.00,WUHU21623XXSP,2013-03-18 20:57:00,
2013-03-18 17:02:00,30.7,25.8,29.46,SE,135,0.0,0.0,82,0.00,,,0.00,WUHU21623XXSP,2013-03-18 21:02:00,
2013-03-18 17:07:00,30.9,26.0,29.46,ENE,67,4.0,4.0,82,0.00,,,0.00,WUHU21623XXSP,2013-03-18 21:07:00,
2013-03-18 17:13:00,31.0,26.1,29.46,ENE,67,2.7,4.0,82,0.00,,,0.00,WUHU21623XXSP,2013-03-18 21:13:00,
2013-03-18 17:19:00,31.0,26.1,29.46,SE,135,6.7,6.7,82,0.00,,,0.00,WUHU21623XXSP,2013-03-18 21:19:00,
2013-03-18 17:26:00,31.2,26.3,29.45,East,90,0.0,6.7,82,0.00,,,0.00,WUHU21623XXSP,2013-03-18 21:26:00,
2013-03-18 17:36:00,31.0,26.1,29.45,East,90,0.0,0.0,82,0.00,,,0.00,WUHU21623XXSP,2013-03-18 21:36:00,
2013-03-18 17:43:00,31.0,26.4,29.45,ESE,112,0.0,0.0,83,0.00,,,0.00,WUHU21623XXSP,2013-03-18 21:43:00,
2013-03-18 17:48:00,31.0,26.4,29.45,ESE,112,0.0,0.0,83,0.00,,,0.00,WUHU21623XXSP,2013-03-18 21:48:00,
2013-03-18 17:53:00,31.2,26.6,29.44,East,90,0.0,0.0,83,0.00,,,0.00,WUHU21623XXSP,2013-03-18 21:53:00,
2013-03-18 17:58:00,31.2,26.6,29.43,ESE,112,0.0,0.0,83,0.00,,,0.00,WUHU21623XXSP,2013-03-18 21:58:00,
2013-03-18 18:03:00,31.2,26.6,29.43,SSE,157,0.0,0.0,83,0.00,,,0.00,WUHU21623XXSP,2013-03-18 22:03:00,
2013-03-18 18:08:00,31.2,26.6,29.43,NE,45,0.0,0.0,83,0.00,,,0.00,WUHU21623XXSP,2013-03-18 22:08:00,
2013-03-18 18:13:00,31.2,26.9,29.44,East,90,0.0,0.0,84,0.00,,,0.00,WUHU21623XXSP,2013-03-18 22:13:00,
2013-03-18 18:21:00,31.2,26.9,29.43,ESE,112,0.0,0.0,84,0.00,,,0.00,WUHU21623XXSP,2013-03-18 22:21:00,
2013-03-18 18:28:00,31.2,26.9,29.43,ENE,67,0.0,0.0,84,0.00,,,0.00,WUHU21623XXSP,2013-03-18 22:28:00,
2013-03-18 18:33:00,31.2,26.9,29.43,ENE,67,0.0,0.0,84,0.00,,,0.00,WUHU21623XXSP,2013-03-18 22:33:00,
2013-03-18 18:38:00,31.2,26.9,29.42,ENE,67,0.0,0.0,84,0.00,,,0.00,WUHU21623XXSP,2013-03-18 22:38:00,
2013-03-18 18:43:00,31.4,27.1,29.42,ENE,67,0.0,0.0,84,0.00,,,0.00,WUHU21623XXSP,2013-03-18 22:43:00,
2013-03-18 18:48:00,31.2,26.9,29.42,East,90,0.0,0.0,84,0.00,,,0.00,WUHU21623XXSP,2013-03-18 22:48:00,
2013-03-18 18:53:00,31.2,26.9,29.42,ESE,112,0.0,0.0,84,0.00,,,0.00,WUHU21623XXSP,2013-03-18 22:53:00,
2013-03-18 18:58:00,31.2,26.9,29.42,ENE,67,0.0,0.0,84,0.00,,,0.00,WUHU21623XXSP,2013-03-18 22:58:00,
2013-03-18 19:03:00,31.4,27.1,29.42,ENE,67,0.0,0.0,84,0.00,,,0.00,WUHU21623XXSP,2013-03-18 23:03:00,
2013-03-18 19:08:00,31.2,26.9,29.42,ENE,67,0.0,0.0,84,0.00,,,0.00,WUHU21623XXSP,2013-03-18 23:08:00,
2013-03-18 19:13:00,31.0,26.7,29.42,ENE,67,0.0,0.0,84,0.00,,,0.00,WUHU21623XXSP,2013-03-18 23:13:00,
2013-03-18 19:19:00,31.0,26.7,29.42,ENE,67,0.0,0.0,84,0.00,,,0.00,WUHU21623XXSP,2013-03-18 23:19:00,
2013-03-18 19:24:00,31.0,26.7,29.42,ENE,67,0.0,0.0,84,0.00,,,0.00,WUHU21623XXSP,2013-03-18 23:24:00,
2013-03-18 19:29:00,30.9,26.6,29.42,ENE,67,0.0,0.0,84,0.00,,,0.00,WUHU21623XXSP,2013-03-18 23:29:00,
2013-03-18 19:34:00,30.9,26.9,29.42,ENE,67,0.0,0.0,85,0.00,,,0.00,WUHU21623XXSP,2013-03-18 23:34:00,
2013-03-18 19:39:00,30.9,26.9,29.42,ENE,67,0.0,0.0,85,0.00,,,0.00,WUHU21623XXSP,2013-03-18 23:39:00,
2013-03-18 19:45:00,30.7,26.7,29.42,ENE,67,0.0,0.0,85,0.00,,,0.00,WUHU21623XXSP,2013-03-18 23:45:00,
2013-03-18 19:50:00,30.7,26.7,29.42,ENE,67,0.0,0.0,85,0.00,,,0.00,WUHU21623XXSP,2013-03-18 23:50:00,
2013-03-18 19:55:00,30.7,26.7,29.42,ENE,67,0.0,0.0,85,0.00,,,0.00,WUHU21623XXSP,2013-03-18 23:55:00,
2013-03-18 20:02:00,30.7,26.7,29.41,ENE,67,0.0,0.0,85,0.00,,,0.00,WUHU21623XXSP,2013-03-19 00:02:00,
2013-03-18 20:07:00,30.7,26.7,29.41,ENE,67,0.0,0.0,85,0.00,,,0.00,WUHU21623XXSP,2013-03-19 00:07:00,
2013-03-18 20:12:00,30.7,27.0,29.41,ENE,67,0.0,0.0,86,0.00,,,0.00,WUHU21623XXSP,2013-03-19 00:12:00,
2013-03-18 20:17:00,30.7,27.0,29.41,ENE,67,0.0,0.0,86,0.00,,,0.00,WUHU21623XXSP,2013-03-19 00:17:00,
2013-03-18 20:22:00,30.7,27.0,29.41,ENE,67,0.0,0.0,86,0.00,,,0.00,WUHU21623XXSP,2013-03-19 00:22:00,
2013-03-18 20:27:00,30.7,27.0,29.41,ENE,67,0.0,0.0,86,0.00,,,0.00,WUHU21623XXSP,2013-03-19 00:27:00,
2013-03-18 20:32:00,30.7,27.0,29.41,ENE,67,0.0,0.0,86,0.00,,,0.00,WUHU21623XXSP,2013-03-19 00:32:00,
2013-03-18 20:47:00,30.7,27.0,29.40,ENE,67,0.0,0.0,86,0.00,,,0.00,WUHU21623XXSP,2013-03-19 00:47:00,
2013-03-18 20:52:00,30.7,27.0,29.40,ENE,67,0.0,0.0,86,0.00,,,0.00,WUHU21623XXSP,2013-03-19 00:52:00,
2013-03-18 20:57:00,30.7,27.0,29.40,ENE,67,0.0,0.0,86,0.00,,,0.00,WUHU21623XXSP,2013-03-19 00:57:00,
2013-03-18 21:02:00,30.7,27.0,29.40,ENE,67,0.0,0.0,86,0.00,,,0.00,WUHU21623XXSP,2013-03-19 01:02:00,
2013-03-18 21:07:00,30.7,27.0,29.40,ENE,67,0.0,0.0,86,0.00,,,0.00,WUHU21623XXSP,2013-03-19 01:07:00,
2013-03-18 21:12:00,30.7,27.0,29.40,ENE,67,0.0,0.0,86,0.00,,,0.00,WUHU21623XXSP,2013-03-19 01:12:00,
2013-03-18 21:19:00,30.7,27.0,29.40,ENE,67,0.0,0.0,86,0.00,,,0.00,WUHU21623XXSP,2013-03-19 01:19:00,
2013-03-18 21:24:00,30.7,27.0,29.40,ENE,67,0.0,0.0,86,0.00,,,0.00,WUHU21623XXSP,2013-03-19 01:24:00,
2013-03-18 21:29:00,30.7,27.0,29.40,ENE,67,0.0,0.0,86,0.00,,,0.00,WUHU21623XXSP,2013-03-19 01:29:00,
2013-03-18 21:34:00,30.7,27.0,29.40,East,90,0.0,0.0,86,0.00,,,0.00,WUHU21623XXSP,2013-03-19 01:34:00,
2013-03-18 21:39:00,30.5,26.8,29.40,East,90,0.0,0.0,86,0.00,,,0.00,WUHU21623XXSP,2013-03-19 01:39:00,
2013-03-18 21:45:00,30.7,27.0,29.40,East,90,0.0,0.0,86,0.00,,,0.00,WUHU21623XXSP,2013-03-19 01:45:00,
2013-03-18 21:50:00,30.5,26.8,29.40,East,90,0.0,0.0,86,0.00,,,0.00,WUHU21623XXSP,2013-03-19 01:50:00,
2013-03-18 21:55:00,30.7,27.0,29.40,East,90,0.0,0.0,86,0.00,,,0.00,WUHU21623XXSP,2013-03-19 01:55:00,
2013-03-18 22:00:00,30.7,27.0,29.40,East,90,0.0,0.0,86,0.00,,,0.00,WUHU21623XXSP,2013-03-19 02:00:00,
2013-03-18 22:11:00,30.7,27.0,29.40,East,90,0.0,0.0,86,0.00,,,0.00,WUHU21623XXSP,2013-03-19 02:11:00,
2013-03-18 22:15:00,30.7,27.3,29.40,East,90,0.0,0.0,87,0.00,,,0.00,WUHU21623XXSP,2013-03-19 02:15:00,
2013-03-18 22:21:00,30.7,27.3,29.40,East,90,0.0,0.0,87,0.00,,,0.00,WUHU21623XXSP,2013-03-19 02:21:00,
2013-03-18 22:26:00,30.7,27.3,29.40,East,90,0.0,0.0,87,0.00,,,0.00,WUHU21623XXSP,2013-03-19 02:26:00,
2013-03-18 22:31:00,30.7,27.3,29.40,East,90,0.0,0.0,87,0.00,,,0.00,WUHU21623XXSP,2013-03-19 02:31:00,
2013-03-18 22:36:00,30.7,27.3,29.40,East,90,0.0,0.0,87,0.00,,,0.00,WUHU21623XXSP,2013-03-19 02:36:00,
2013-03-18 22:41:00,30.7,27.3,29.40,East,90,0.0,0.0,87,0.00,,,0.00,WUHU21623XXSP,2013-03-19 02:41:00,
2013-03-18 22:46:00,30.7,27.3,29.40,East,90,0.0,0.0,87,0.00,,,0.00,WUHU21623XXSP,2013-03-19 02:46:00,
2013-03-18 22:51:00,30.7,27.3,29.40,East,90,0.0,0.0,87,0.00,,,0.00,WUHU21623XXSP,2013-03-19 02:51:00,
2013-03-18 22:56:00,30.7,27.3,29.40,East,90,0.0,0.0,87,0.00,,,0.00,WUHU21623XXSP,2013-03-19 02:56:00,
2013-03-18 23:01:00,30.7,27.5,29.40,East,90,0.0,0.0,88,0.00,,,0.00,WUHU21623XXSP,2013-03-19 03:01:00,
2013-03-18 23:06:00,30.7,27.5,29.40,East,90,0.0,0.0,88,0.00,,,0.00,WUHU21623XXSP,2013-03-19 03:06:00,
2013-03-18 23:13:00,30.9,27.7,29.40,East,90,0.0,0.0,88,0.00,,,0.00,WUHU21623XXSP,2013-03-19 03:13:00,
2013-03-18 23:19:00,30.9,27.7,29.40,East,90,0.0,0.0,88,0.00,,,0.00,WUHU21623XXSP,2013-03-19 03:19:00,
2013-03-18 23:24:00,30.9,27.7,29.40,East,90,0.0,0.0,88,0.00,,,0.00,WUHU21623XXSP,2013-03-19 03:24:00,
2013-03-18 23:29:00,31.0,27.8,29.40,East,90,0.0,0.0,88,0.00,,,0.00,WUHU21623XXSP,2013-03-19 03:29:00,
2013-03-18 23:34:00,31.0,27.8,29.40,East,90,0.0,0.0,88,0.00,,,0.00,WUHU21623XXSP,2013-03-19 03:34:00,
2013-03-18 23:41:00,31.0,27.8,29.40,East,90,0.0,0.0,88,0.00,,,0.00,WUHU21623XXSP,2013-03-19 03:41:00,
2013-03-18 23:47:00,31.0,27.8,29.40,East,90,0.0,0.0,88,0.00,,,0.00,WUHU21623XXSP,2013-03-19 03:47:00,
2013-03-18 23:52:00,31.0,27.8,29.40,South,180,0.0,0.0,88,0.00,,,0.00,WUHU21623XXSP,2013-03-19 03:52:00,
2013-03-18 23:57:00,31.0,27.8,29.40,SW,225,0.0,0.0,88,0.00,,,0.00,WUHU21623XXSP,2013-03-19 03:57:00,